Terminal Aerodrome Forecast
Issued by NWS Medford, OR

Home | Current Version | Previous Version | Text Only | Print | Product List | Glossary On
Versions: 1 2 3 4 5 6 7 8 9 10 11 12 13 14
000
FTUS46 KMFR 171750
TAFMFR
TAF
KMFR 171750Z 1718/1818 31003KT P6SM OVC040
     FM172300 30012KT P6SM BKN020 OVC040
     FM180600 29006KT P6SM -RA OVC020
     FM181000 31005KT 3SM RASN OVC010
     FM181400 31006KT 3SM -SHSN OVC010=

USA.gov is the U.S. government's official web portal to all federal, state and local government web resources and services.